sensor_id;sensor_type;location;lat;lon;timestamp;P1;durP1;ratioP1;P2;durP2;ratioP2
40198;SDS011;25906;43.536;26.068;2023-08-31T00:02:00;16.65;;;9.60;;
40198;SDS011;25906;43.536;26.068;2023-08-31T00:04:45;18.65;;;9.15;;
40198;SDS011;25906;43.536;26.068;2023-08-31T00:07:31;14.50;;;10.40;;
40198;SDS011;25906;43.536;26.068;2023-08-31T00:10:17;16.50;;;10.60;;
40198;SDS011;25906;43.536;26.068;2023-08-31T00:13:02;18.92;;;10.98;;
40198;SDS011;25906;43.536;26.068;2023-08-31T00:15:49;18.35;;;11.27;;
40198;SDS011;25906;43.536;26.068;2023-08-31T00:18:35;15.98;;;9.82;;
40198;SDS011;25906;43.536;26.068;2023-08-31T00:21:21;15.57;;;10.43;;
40198;SDS011;25906;43.536;26.068;2023-08-31T00:24:06;14.85;;;10.02;;
40198;SDS011;25906;43.536;26.068;2023-08-31T00:26:54;18.58;;;9.80;;
40198;SDS011;25906;43.536;26.068;2023-08-31T00:29:40;14.15;;;9.60;;
40198;SDS011;25906;43.536;26.068;2023-08-31T00:32:25;15.57;;;9.30;;
40198;SDS011;25906;43.536;26.068;2023-08-31T00:35:11;12.43;;;9.32;;
40198;SDS011;25906;43.536;26.068;2023-08-31T00:37:57;13.30;;;9.85;;
40198;SDS011;25906;43.536;26.068;2023-08-31T00:40:43;12.45;;;8.75;;
40198;SDS011;25906;43.536;26.068;2023-08-31T00:43:32;15.82;;;8.32;;
40198;SDS011;25906;43.536;26.068;2023-08-31T00:47:20;13.13;;;8.88;;
40198;SDS011;25906;43.536;26.068;2023-08-31T00:50:06;12.40;;;9.20;;
40198;SDS011;25906;43.536;26.068;2023-08-31T00:52:52;13.82;;;8.60;;
40198;SDS011;25906;43.536;26.068;2023-08-31T00:55:38;16.48;;;8.55;;
40198;SDS011;25906;43.536;26.068;2023-08-31T00:58:26;12.52;;;8.40;;
40198;SDS011;25906;43.536;26.068;2023-08-31T01:13:39;16.50;;;9.98;;
40198;SDS011;25906;43.536;26.068;2023-08-31T01:16:29;13.88;;;9.32;;
40198;SDS011;25906;43.536;26.068;2023-08-31T01:25:21;16.92;;;9.43;;
40198;SDS011;25906;43.536;26.068;2023-08-31T01:28:06;14.07;;;9.10;;
40198;SDS011;25906;43.536;26.068;2023-08-31T01:30:52;14.50;;;9.63;;
40198;SDS011;25906;43.536;26.068;2023-08-31T01:43:50;13.57;;;9.45;;
40198;SDS011;25906;43.536;26.068;2023-08-31T01:46:37;15.77;;;10.20;;
40198;SDS011;25906;43.536;26.068;2023-08-31T01:49:23;15.05;;;10.18;;
40198;SDS011;25906;43.536;26.068;2023-08-31T01:54:54;14.50;;;10.00;;
40198;SDS011;25906;43.536;26.068;2023-08-31T01:57:40;15.50;;;10.13;;
40198;SDS011;25906;43.536;26.068;2023-08-31T02:00:25;13.35;;;9.85;;
40198;SDS011;25906;43.536;26.068;2023-08-31T02:05:56;14.25;;;9.93;;
40198;SDS011;25906;43.536;26.068;2023-08-31T02:08:42;15.02;;;10.10;;
40198;SDS011;25906;43.536;26.068;2023-08-31T02:11:29;15.73;;;10.27;;
40198;SDS011;25906;43.536;26.068;2023-08-31T02:14:16;16.85;;;11.43;;
40198;SDS011;25906;43.536;26.068;2023-08-31T02:17:02;15.40;;;11.32;;
40198;SDS011;25906;43.536;26.068;2023-08-31T02:19:47;17.30;;;10.70;;
40198;SDS011;25906;43.536;26.068;2023-08-31T02:22:33;18.30;;;10.68;;
40198;SDS011;25906;43.536;26.068;2023-08-31T02:25:20;14.80;;;10.27;;
40198;SDS011;25906;43.536;26.068;2023-08-31T02:28:06;19.38;;;11.20;;
40198;SDS011;25906;43.536;26.068;2023-08-31T02:31:01;19.38;;;10.82;;
40198;SDS011;25906;43.536;26.068;2023-08-31T02:33:47;15.40;;;10.15;;
40198;SDS011;25906;43.536;26.068;2023-08-31T02:36:33;12.65;;;9.40;;
40198;SDS011;25906;43.536;26.068;2023-08-31T02:39:18;18.85;;;10.30;;
40198;SDS011;25906;43.536;26.068;2023-08-31T02:42:04;18.13;;;10.50;;
40198;SDS011;25906;43.536;26.068;2023-08-31T02:44:53;14.60;;;10.63;;
40198;SDS011;25906;43.536;26.068;2023-08-31T02:47:39;14.23;;;9.73;;
40198;SDS011;25906;43.536;26.068;2023-08-31T02:50:24;14.00;;;9.50;;
40198;SDS011;25906;43.536;26.068;2023-08-31T02:53:09;15.57;;;9.45;;
40198;SDS011;25906;43.536;26.068;2023-08-31T02:55:55;15.98;;;10.27;;
40198;SDS011;25906;43.536;26.068;2023-08-31T02:58:41;17.50;;;10.02;;
40198;SDS011;25906;43.536;26.068;2023-08-31T03:01:27;15.07;;;9.23;;
40198;SDS011;25906;43.536;26.068;2023-08-31T03:04:12;13.50;;;9.25;;
40198;SDS011;25906;43.536;26.068;2023-08-31T03:06:58;14.85;;;9.77;;
40198;SDS011;25906;43.536;26.068;2023-08-31T03:09:43;18.33;;;9.55;;
40198;SDS011;25906;43.536;26.068;2023-08-31T03:12:34;12.90;;;9.38;;
40198;SDS011;25906;43.536;26.068;2023-08-31T03:15:19;14.15;;;9.80;;
40198;SDS011;25906;43.536;26.068;2023-08-31T03:18:05;13.35;;;9.75;;
40198;SDS011;25906;43.536;26.068;2023-08-31T03:20:50;17.30;;;9.23;;
40198;SDS011;25906;43.536;26.068;2023-08-31T03:23:36;13.68;;;9.73;;
40198;SDS011;25906;43.536;26.068;2023-08-31T03:26:21;13.88;;;10.02;;
40198;SDS011;25906;43.536;26.068;2023-08-31T03:29:07;18.33;;;11.43;;
40198;SDS011;25906;43.536;26.068;2023-08-31T03:31:53;18.90;;;13.00;;
40198;SDS011;25906;43.536;26.068;2023-08-31T03:34:38;18.20;;;12.48;;
40198;SDS011;25906;43.536;26.068;2023-08-31T03:37:23;17.92;;;11.45;;
40198;SDS011;25906;43.536;26.068;2023-08-31T03:40:09;13.90;;;10.10;;
40198;SDS011;25906;43.536;26.068;2023-08-31T03:42:55;19.58;;;12.90;;
40198;SDS011;25906;43.536;26.068;2023-08-31T03:45:41;17.13;;;12.00;;
40198;SDS011;25906;43.536;26.068;2023-08-31T03:48:26;18.17;;;11.40;;
40198;SDS011;25906;43.536;26.068;2023-08-31T03:51:12;17.23;;;11.13;;
40198;SDS011;25906;43.536;26.068;2023-08-31T03:53:57;16.58;;;11.23;;
40198;SDS011;25906;43.536;26.068;2023-08-31T03:56:43;19.00;;;12.15;;
40198;SDS011;25906;43.536;26.068;2023-08-31T03:59:28;18.30;;;11.63;;
40198;SDS011;25906;43.536;26.068;2023-08-31T04:02:14;18.05;;;12.13;;
40198;SDS011;25906;43.536;26.068;2023-08-31T04:05:00;16.23;;;10.93;;
40198;SDS011;25906;43.536;26.068;2023-08-31T04:07:45;15.07;;;10.45;;
40198;SDS011;25906;43.536;26.068;2023-08-31T04:10:31;17.27;;;11.07;;
40198;SDS011;25906;43.536;26.068;2023-08-31T04:13:19;14.73;;;11.07;;
40198;SDS011;25906;43.536;26.068;2023-08-31T04:16:04;20.27;;;12.02;;
40198;SDS011;25906;43.536;26.068;2023-08-31T04:21:38;22.05;;;12.43;;
40198;SDS011;25906;43.536;26.068;2023-08-31T04:24:24;19.50;;;12.57;;
40198;SDS011;25906;43.536;26.068;2023-08-31T04:27:10;15.50;;;11.27;;
40198;SDS011;25906;43.536;26.068;2023-08-31T04:29:55;20.45;;;11.07;;
40198;SDS011;25906;43.536;26.068;2023-08-31T04:32:40;20.80;;;12.02;;
40198;SDS011;25906;43.536;26.068;2023-08-31T04:35:27;19.52;;;12.52;;
40198;SDS011;25906;43.536;26.068;2023-08-31T04:38:12;17.23;;;12.73;;
40198;SDS011;25906;43.536;26.068;2023-08-31T04:40:58;18.25;;;12.52;;
40198;SDS011;25906;43.536;26.068;2023-08-31T04:43:44;17.50;;;12.30;;
40198;SDS011;25906;43.536;26.068;2023-08-31T04:46:32;19.50;;;13.10;;
40198;SDS011;25906;43.536;26.068;2023-08-31T04:49:19;18.25;;;12.77;;
40198;SDS011;25906;43.536;26.068;2023-08-31T04:52:04;18.48;;;12.02;;
40198;SDS011;25906;43.536;26.068;2023-08-31T04:54:50;18.40;;;12.90;;
40198;SDS011;25906;43.536;26.068;2023-08-31T04:57:36;17.27;;;12.20;;
40198;SDS011;25906;43.536;26.068;2023-08-31T05:00:21;20.85;;;12.60;;
40198;SDS011;25906;43.536;26.068;2023-08-31T05:03:07;18.20;;;12.55;;
40198;SDS011;25906;43.536;26.068;2023-08-31T05:05:53;18.38;;;13.32;;
40198;SDS011;25906;43.536;26.068;2023-08-31T05:08:38;17.33;;;13.00;;
40198;SDS011;25906;43.536;26.068;2023-08-31T05:11:24;16.90;;;12.27;;
40198;SDS011;25906;43.536;26.068;2023-08-31T05:14:09;25.77;;;13.00;;
40198;SDS011;25906;43.536;26.068;2023-08-31T05:16:55;19.52;;;13.20;;
40198;SDS011;25906;43.536;26.068;2023-08-31T05:19:41;15.65;;;11.80;;
40198;SDS011;25906;43.536;26.068;2023-08-31T05:22:26;19.80;;;12.02;;
40198;SDS011;25906;43.536;26.068;2023-08-31T05:25:11;17.52;;;13.43;;
40198;SDS011;25906;43.536;26.068;2023-08-31T05:27:57;19.52;;;13.02;;
40198;SDS011;25906;43.536;26.068;2023-08-31T05:30:49;19.42;;;12.90;;
40198;SDS011;25906;43.536;26.068;2023-08-31T05:33:36;21.85;;;12.60;;
40198;SDS011;25906;43.536;26.068;2023-08-31T05:36:21;18.80;;;13.00;;
40198;SDS011;25906;43.536;26.068;2023-08-31T05:39:07;17.77;;;12.50;;
40198;SDS011;25906;43.536;26.068;2023-08-31T05:41:53;16.42;;;12.82;;
40198;SDS011;25906;43.536;26.068;2023-08-31T05:44:39;18.92;;;13.07;;
40198;SDS011;25906;43.536;26.068;2023-08-31T05:47:24;19.77;;;12.45;;
40198;SDS011;25906;43.536;26.068;2023-08-31T05:50:10;18.65;;;12.32;;
40198;SDS011;25906;43.536;26.068;2023-08-31T05:52:55;19.52;;;13.35;;
40198;SDS011;25906;43.536;26.068;2023-08-31T05:55:41;16.73;;;12.60;;
40198;SDS011;25906;43.536;26.068;2023-08-31T05:58:27;20.00;;;13.40;;
40198;SDS011;25906;43.536;26.068;2023-08-31T06:01:12;17.50;;;13.30;;
40198;SDS011;25906;43.536;26.068;2023-08-31T06:03:58;15.90;;;12.57;;
40198;SDS011;25906;43.536;26.068;2023-08-31T06:06:43;20.33;;;13.93;;
40198;SDS011;25906;43.536;26.068;2023-08-31T06:09:29;21.15;;;13.88;;
40198;SDS011;25906;43.536;26.068;2023-08-31T06:12:14;23.75;;;13.63;;
40198;SDS011;25906;43.536;26.068;2023-08-31T06:15:00;20.60;;;14.10;;
40198;SDS011;25906;43.536;26.068;2023-08-31T06:17:45;19.02;;;14.35;;
40198;SDS011;25906;43.536;26.068;2023-08-31T06:20:31;22.85;;;15.93;;
40198;SDS011;25906;43.536;26.068;2023-08-31T06:23:17;21.27;;;15.23;;
40198;SDS011;25906;43.536;26.068;2023-08-31T06:26:02;21.70;;;15.75;;
40198;SDS011;25906;43.536;26.068;2023-08-31T06:28:48;22.67;;;16.55;;
40198;SDS011;25906;43.536;26.068;2023-08-31T06:31:34;23.60;;;16.88;;
40198;SDS011;25906;43.536;26.068;2023-08-31T06:34:20;22.15;;;16.90;;
40198;SDS011;25906;43.536;26.068;2023-08-31T06:37:05;23.88;;;16.58;;
40198;SDS011;25906;43.536;26.068;2023-08-31T06:39:51;23.08;;;16.02;;
40198;SDS011;25906;43.536;26.068;2023-08-31T06:42:36;27.52;;;17.23;;
40198;SDS011;25906;43.536;26.068;2023-08-31T06:48:07;19.95;;;15.68;;
40198;SDS011;25906;43.536;26.068;2023-08-31T06:50:53;24.85;;;16.38;;
40198;SDS011;25906;43.536;26.068;2023-08-31T06:53:39;21.75;;;16.00;;
40198;SDS011;25906;43.536;26.068;2023-08-31T06:56:24;24.00;;;16.63;;
40198;SDS011;25906;43.536;26.068;2023-08-31T06:59:10;20.33;;;14.93;;
40198;SDS011;25906;43.536;26.068;2023-08-31T07:01:55;25.40;;;15.20;;
40198;SDS011;25906;43.536;26.068;2023-08-31T07:04:41;21.45;;;14.38;;
40198;SDS011;25906;43.536;26.068;2023-08-31T07:07:26;22.73;;;14.68;;
40198;SDS011;25906;43.536;26.068;2023-08-31T07:10:12;22.15;;;15.02;;
40198;SDS011;25906;43.536;26.068;2023-08-31T07:12:58;29.45;;;14.63;;
40198;SDS011;25906;43.536;26.068;2023-08-31T07:15:44;20.65;;;15.23;;
40198;SDS011;25906;43.536;26.068;2023-08-31T07:21:15;21.42;;;14.50;;
40198;SDS011;25906;43.536;26.068;2023-08-31T07:24:00;21.10;;;13.63;;
40198;SDS011;25906;43.536;26.068;2023-08-31T07:26:46;20.02;;;14.23;;
40198;SDS011;25906;43.536;26.068;2023-08-31T07:29:31;22.73;;;14.02;;
40198;SDS011;25906;43.536;26.068;2023-08-31T07:32:17;20.70;;;12.65;;
40198;SDS011;25906;43.536;26.068;2023-08-31T07:35:02;21.55;;;12.15;;
40198;SDS011;25906;43.536;26.068;2023-08-31T07:37:49;15.07;;;11.93;;
40198;SDS011;25906;43.536;26.068;2023-08-31T07:40:35;14.50;;;11.70;;
40198;SDS011;25906;43.536;26.068;2023-08-31T07:43:20;21.17;;;11.55;;
40198;SDS011;25906;43.536;26.068;2023-08-31T07:48:51;15.32;;;10.60;;
40198;SDS011;25906;43.536;26.068;2023-08-31T07:51:37;14.82;;;10.38;;
40198;SDS011;25906;43.536;26.068;2023-08-31T07:54:23;15.77;;;10.68;;
40198;SDS011;25906;43.536;26.068;2023-08-31T07:59:56;17.95;;;11.02;;
40198;SDS011;25906;43.536;26.068;2023-08-31T08:02:42;18.25;;;10.48;;
40198;SDS011;25906;43.536;26.068;2023-08-31T08:05:27;17.13;;;9.85;;
40198;SDS011;25906;43.536;26.068;2023-08-31T08:08:13;16.38;;;9.88;;
40198;SDS011;25906;43.536;26.068;2023-08-31T08:10:59;14.40;;;10.02;;
40198;SDS011;25906;43.536;26.068;2023-08-31T08:13:45;13.90;;;9.95;;
40198;SDS011;25906;43.536;26.068;2023-08-31T08:16:30;14.07;;;10.43;;
40198;SDS011;25906;43.536;26.068;2023-08-31T08:22:06;13.20;;;8.40;;
40198;SDS011;25906;43.536;26.068;2023-08-31T08:27:37;19.63;;;8.48;;
40198;SDS011;25906;43.536;26.068;2023-08-31T08:33:08;12.40;;;8.07;;
40198;SDS011;25906;43.536;26.068;2023-08-31T08:35:55;11.15;;;7.50;;
40198;SDS011;25906;43.536;26.068;2023-08-31T08:38:44;13.88;;;6.57;;
40198;SDS011;25906;43.536;26.068;2023-08-31T08:44:16;9.55;;;5.38;;
40198;SDS011;25906;43.536;26.068;2023-08-31T08:47:02;7.68;;;4.88;;
40198;SDS011;25906;43.536;26.068;2023-08-31T08:49:48;9.85;;;5.80;;
40198;SDS011;25906;43.536;26.068;2023-08-31T08:52:34;10.45;;;5.35;;
40198;SDS011;25906;43.536;26.068;2023-08-31T08:58:07;10.77;;;5.55;;
40198;SDS011;25906;43.536;26.068;2023-08-31T09:00:53;10.52;;;5.50;;
40198;SDS011;25906;43.536;26.068;2023-08-31T09:03:43;9.38;;;6.15;;
40198;SDS011;25906;43.536;26.068;2023-08-31T09:06:28;13.02;;;6.50;;
40198;SDS011;25906;43.536;26.068;2023-08-31T09:09:15;8.82;;;6.72;;
40198;SDS011;25906;43.536;26.068;2023-08-31T09:12:07;12.98;;;6.90;;
40198;SDS011;25906;43.536;26.068;2023-08-31T09:15:00;9.63;;;6.50;;
40198;SDS011;25906;43.536;26.068;2023-08-31T09:17:47;11.80;;;6.80;;
40198;SDS011;25906;43.536;26.068;2023-08-31T09:23:27;12.30;;;5.28;;
40198;SDS011;25906;43.536;26.068;2023-08-31T09:26:13;13.48;;;6.03;;
40198;SDS011;25906;43.536;26.068;2023-08-31T09:28:58;9.68;;;6.50;;
40198;SDS011;25906;43.536;26.068;2023-08-31T09:34:33;10.10;;;6.35;;
40198;SDS011;25906;43.536;26.068;2023-08-31T09:37:19;9.35;;;6.78;;
40198;SDS011;25906;43.536;26.068;2023-08-31T09:40:05;10.38;;;6.82;;
40198;SDS011;25906;43.536;26.068;2023-08-31T09:42:51;14.48;;;7.07;;
40198;SDS011;25906;43.536;26.068;2023-08-31T09:45:36;10.57;;;6.95;;
40198;SDS011;25906;43.536;26.068;2023-08-31T09:48:23;8.88;;;6.72;;
40198;SDS011;25906;43.536;26.068;2023-08-31T09:51:09;8.13;;;6.13;;
40198;SDS011;25906;43.536;26.068;2023-08-31T09:53:56;7.47;;;5.10;;
40198;SDS011;25906;43.536;26.068;2023-08-31T09:56:43;11.15;;;6.55;;
40198;SDS011;25906;43.536;26.068;2023-08-31T09:59:29;11.27;;;6.82;;
40198;SDS011;25906;43.536;26.068;2023-08-31T10:02:16;12.50;;;6.32;;
40198;SDS011;25906;43.536;26.068;2023-08-31T10:05:02;12.73;;;6.68;;
40198;SDS011;25906;43.536;26.068;2023-08-31T10:07:49;11.95;;;7.32;;
40198;SDS011;25906;43.536;26.068;2023-08-31T10:10:36;7.47;;;5.28;;
40198;SDS011;25906;43.536;26.068;2023-08-31T10:13:22;8.50;;;4.78;;
40198;SDS011;25906;43.536;26.068;2023-08-31T10:16:08;8.45;;;5.00;;
40198;SDS011;25906;43.536;26.068;2023-08-31T10:18:55;9.00;;;5.55;;
40198;SDS011;25906;43.536;26.068;2023-08-31T10:21:41;10.35;;;5.70;;
40198;SDS011;25906;43.536;26.068;2023-08-31T10:27:50;9.20;;;5.03;;
40198;SDS011;25906;43.536;26.068;2023-08-31T10:30:36;8.55;;;4.75;;
40198;SDS011;25906;43.536;26.068;2023-08-31T10:33:22;9.63;;;5.28;;
40198;SDS011;25906;43.536;26.068;2023-08-31T10:36:18;6.00;;;4.68;;
40198;SDS011;25906;43.536;26.068;2023-08-31T10:39:06;11.80;;;5.38;;
40198;SDS011;25906;43.536;26.068;2023-08-31T10:41:56;9.65;;;5.13;;
40198;SDS011;25906;43.536;26.068;2023-08-31T10:44:42;11.27;;;5.10;;
40198;SDS011;25906;43.536;26.068;2023-08-31T10:47:46;7.13;;;5.28;;
40198;SDS011;25906;43.536;26.068;2023-08-31T10:50:33;7.82;;;5.43;;
40198;SDS011;25906;43.536;26.068;2023-08-31T10:53:29;8.60;;;5.35;;
40198;SDS011;25906;43.536;26.068;2023-08-31T10:56:15;6.07;;;4.63;;
40198;SDS011;25906;43.536;26.068;2023-08-31T10:59:01;6.80;;;4.50;;
40198;SDS011;25906;43.536;26.068;2023-08-31T11:01:51;7.95;;;5.10;;
40198;SDS011;25906;43.536;26.068;2023-08-31T11:04:54;8.38;;;5.22;;
40198;SDS011;25906;43.536;26.068;2023-08-31T11:08:00;7.60;;;4.60;;
40198;SDS011;25906;43.536;26.068;2023-08-31T11:10:45;9.30;;;5.40;;
40198;SDS011;25906;43.536;26.068;2023-08-31T11:16:16;8.57;;;4.85;;
40198;SDS011;25906;43.536;26.068;2023-08-31T11:21:48;9.25;;;4.72;;
40198;SDS011;25906;43.536;26.068;2023-08-31T11:24:34;7.38;;;4.60;;
40198;SDS011;25906;43.536;26.068;2023-08-31T11:27:19;9.27;;;4.25;;
40198;SDS011;25906;43.536;26.068;2023-08-31T11:30:11;8.60;;;4.57;;
40198;SDS011;25906;43.536;26.068;2023-08-31T11:33:04;7.65;;;3.85;;
40198;SDS011;25906;43.536;26.068;2023-08-31T11:35:50;8.15;;;4.15;;
40198;SDS011;25906;43.536;26.068;2023-08-31T11:38:36;5.10;;;3.75;;
40198;SDS011;25906;43.536;26.068;2023-08-31T11:44:08;8.40;;;4.13;;
40198;SDS011;25906;43.536;26.068;2023-08-31T11:46:54;4.53;;;3.67;;
40198;SDS011;25906;43.536;26.068;2023-08-31T11:49:40;4.50;;;3.80;;
40198;SDS011;25906;43.536;26.068;2023-08-31T11:52:27;12.25;;;3.88;;
40198;SDS011;25906;43.536;26.068;2023-08-31T11:55:13;7.97;;;3.72;;
40198;SDS011;25906;43.536;26.068;2023-08-31T11:58:00;10.88;;;3.75;;
40198;SDS011;25906;43.536;26.068;2023-08-31T12:00:46;10.02;;;4.30;;
40198;SDS011;25906;43.536;26.068;2023-08-31T12:03:43;8.23;;;3.67;;
40198;SDS011;25906;43.536;26.068;2023-08-31T12:06:32;7.55;;;3.80;;
40198;SDS011;25906;43.536;26.068;2023-08-31T12:09:17;6.07;;;3.88;;
40198;SDS011;25906;43.536;26.068;2023-08-31T12:12:03;6.68;;;3.63;;
40198;SDS011;25906;43.536;26.068;2023-08-31T12:14:52;7.68;;;4.03;;
40198;SDS011;25906;43.536;26.068;2023-08-31T12:17:38;8.10;;;3.60;;
40198;SDS011;25906;43.536;26.068;2023-08-31T12:20:28;6.93;;;3.60;;
40198;SDS011;25906;43.536;26.068;2023-08-31T12:26:02;5.15;;;3.63;;
40198;SDS011;25906;43.536;26.068;2023-08-31T12:28:50;6.88;;;3.28;;
40198;SDS011;25906;43.536;26.068;2023-08-31T12:31:36;5.70;;;3.60;;
40198;SDS011;25906;43.536;26.068;2023-08-31T12:37:07;9.10;;;3.40;;
40198;SDS011;25906;43.536;26.068;2023-08-31T12:39:52;8.63;;;4.07;;
40198;SDS011;25906;43.536;26.068;2023-08-31T12:45:23;6.80;;;3.58;;
40198;SDS011;25906;43.536;26.068;2023-08-31T12:48:08;6.53;;;3.60;;
40198;SDS011;25906;43.536;26.068;2023-08-31T12:50:54;9.07;;;3.45;;
40198;SDS011;25906;43.536;26.068;2023-08-31T12:53:40;10.35;;;3.55;;
40198;SDS011;25906;43.536;26.068;2023-08-31T12:56:25;5.85;;;3.67;;
40198;SDS011;25906;43.536;26.068;2023-08-31T13:01:56;6.25;;;3.88;;
40198;SDS011;25906;43.536;26.068;2023-08-31T13:04:42;6.80;;;3.60;;
40198;SDS011;25906;43.536;26.068;2023-08-31T13:07:27;5.18;;;3.50;;
40198;SDS011;25906;43.536;26.068;2023-08-31T13:10:13;6.47;;;3.53;;
40198;SDS011;25906;43.536;26.068;2023-08-31T13:15:45;5.47;;;2.95;;
40198;SDS011;25906;43.536;26.068;2023-08-31T13:18:31;6.97;;;3.40;;
40198;SDS011;25906;43.536;26.068;2023-08-31T13:21:17;6.32;;;3.15;;
40198;SDS011;25906;43.536;26.068;2023-08-31T13:24:03;8.80;;;3.17;;
40198;SDS011;25906;43.536;26.068;2023-08-31T13:26:48;5.10;;;3.00;;
40198;SDS011;25906;43.536;26.068;2023-08-31T13:29:34;5.57;;;2.90;;
40198;SDS011;25906;43.536;26.068;2023-08-31T13:32:20;5.53;;;3.13;;
40198;SDS011;25906;43.536;26.068;2023-08-31T13:35:05;3.58;;;2.92;;
40198;SDS011;25906;43.536;26.068;2023-08-31T13:37:52;5.97;;;3.35;;
40198;SDS011;25906;43.536;26.068;2023-08-31T13:43:23;11.45;;;4.20;;
40198;SDS011;25906;43.536;26.068;2023-08-31T13:46:09;4.07;;;2.97;;
40198;SDS011;25906;43.536;26.068;2023-08-31T13:48:56;5.10;;;3.15;;
40198;SDS011;25906;43.536;26.068;2023-08-31T13:54:27;5.70;;;3.05;;
40198;SDS011;25906;43.536;26.068;2023-08-31T13:57:12;8.32;;;3.22;;
40198;SDS011;25906;43.536;26.068;2023-08-31T14:00:02;6.05;;;2.72;;
40198;SDS011;25906;43.536;26.068;2023-08-31T14:02:49;6.45;;;2.67;;
40198;SDS011;25906;43.536;26.068;2023-08-31T14:08:20;5.88;;;2.80;;
40198;SDS011;25906;43.536;26.068;2023-08-31T14:11:06;5.13;;;3.00;;
40198;SDS011;25906;43.536;26.068;2023-08-31T14:16:37;6.35;;;3.17;;
40198;SDS011;25906;43.536;26.068;2023-08-31T14:19:23;11.82;;;3.17;;
40198;SDS011;25906;43.536;26.068;2023-08-31T14:24:55;7.55;;;3.40;;
40198;SDS011;25906;43.536;26.068;2023-08-31T14:27:41;7.20;;;3.70;;
40198;SDS011;25906;43.536;26.068;2023-08-31T14:30:26;5.25;;;2.85;;
40198;SDS011;25906;43.536;26.068;2023-08-31T14:33:12;6.40;;;3.13;;
40198;SDS011;25906;43.536;26.068;2023-08-31T14:38:43;7.65;;;3.67;;
40198;SDS011;25906;43.536;26.068;2023-08-31T14:41:30;7.93;;;3.35;;
40198;SDS011;25906;43.536;26.068;2023-08-31T14:44:16;4.75;;;2.92;;
40198;SDS011;25906;43.536;26.068;2023-08-31T14:47:01;4.60;;;3.15;;
40198;SDS011;25906;43.536;26.068;2023-08-31T14:49:48;5.10;;;2.80;;
40198;SDS011;25906;43.536;26.068;2023-08-31T14:52:33;6.93;;;2.92;;
40198;SDS011;25906;43.536;26.068;2023-08-31T14:55:19;6.55;;;2.75;;
40198;SDS011;25906;43.536;26.068;2023-08-31T14:58:04;6.85;;;3.08;;
40198;SDS011;25906;43.536;26.068;2023-08-31T15:00:56;4.18;;;2.80;;
40198;SDS011;25906;43.536;26.068;2023-08-31T15:03:42;3.92;;;2.50;;
40198;SDS011;25906;43.536;26.068;2023-08-31T15:06:28;4.15;;;2.53;;
40198;SDS011;25906;43.536;26.068;2023-08-31T15:09:17;6.20;;;2.83;;
40198;SDS011;25906;43.536;26.068;2023-08-31T15:12:04;4.88;;;2.78;;
40198;SDS011;25906;43.536;26.068;2023-08-31T15:14:49;3.88;;;2.60;;
40198;SDS011;25906;43.536;26.068;2023-08-31T15:17:34;2.85;;;2.55;;
40198;SDS011;25906;43.536;26.068;2023-08-31T15:23:06;4.45;;;2.40;;
40198;SDS011;25906;43.536;26.068;2023-08-31T15:25:51;4.72;;;2.50;;
40198;SDS011;25906;43.536;26.068;2023-08-31T15:31:22;6.68;;;2.88;;
40198;SDS011;25906;43.536;26.068;2023-08-31T15:34:11;9.25;;;2.60;;
40198;SDS011;25906;43.536;26.068;2023-08-31T15:36:57;4.47;;;2.70;;
40198;SDS011;25906;43.536;26.068;2023-08-31T15:39:42;9.38;;;2.70;;
40198;SDS011;25906;43.536;26.068;2023-08-31T15:42:27;3.33;;;2.83;;
40198;SDS011;25906;43.536;26.068;2023-08-31T15:45:13;4.93;;;3.03;;
40198;SDS011;25906;43.536;26.068;2023-08-31T15:47:59;3.60;;;2.78;;
40198;SDS011;25906;43.536;26.068;2023-08-31T15:53:30;7.57;;;3.25;;
40198;SDS011;25906;43.536;26.068;2023-08-31T15:56:16;6.32;;;2.72;;
40198;SDS011;25906;43.536;26.068;2023-08-31T15:59:01;6.40;;;2.72;;
40198;SDS011;25906;43.536;26.068;2023-08-31T16:01:48;6.47;;;2.13;;
40198;SDS011;25906;43.536;26.068;2023-08-31T16:04:34;5.47;;;2.63;;
40198;SDS011;25906;43.536;26.068;2023-08-31T16:07:20;5.63;;;2.70;;
40198;SDS011;25906;43.536;26.068;2023-08-31T16:12:51;5.93;;;2.85;;
40198;SDS011;25906;43.536;26.068;2023-08-31T16:15:42;3.13;;;2.17;;
40198;SDS011;25906;43.536;26.068;2023-08-31T16:18:30;3.88;;;2.20;;
40198;SDS011;25906;43.536;26.068;2023-08-31T16:21:17;4.10;;;2.22;;
40198;SDS011;25906;43.536;26.068;2023-08-31T16:24:03;5.50;;;2.42;;
40198;SDS011;25906;43.536;26.068;2023-08-31T16:26:48;2.97;;;2.47;;
40198;SDS011;25906;43.536;26.068;2023-08-31T16:29:34;5.07;;;2.80;;
40198;SDS011;25906;43.536;26.068;2023-08-31T16:32:19;2.63;;;1.95;;
40198;SDS011;25906;43.536;26.068;2023-08-31T16:35:06;4.60;;;2.30;;
40198;SDS011;25906;43.536;26.068;2023-08-31T16:37:51;4.72;;;2.00;;
40198;SDS011;25906;43.536;26.068;2023-08-31T16:43:22;3.90;;;1.83;;
40198;SDS011;25906;43.536;26.068;2023-08-31T16:46:12;7.32;;;2.40;;
40198;SDS011;25906;43.536;26.068;2023-08-31T16:48:58;4.88;;;1.85;;
40198;SDS011;25906;43.536;26.068;2023-08-31T16:51:43;2.58;;;1.63;;
40198;SDS011;25906;43.536;26.068;2023-08-31T16:54:29;4.47;;;1.92;;
40198;SDS011;25906;43.536;26.068;2023-08-31T16:57:15;2.75;;;1.88;;
40198;SDS011;25906;43.536;26.068;2023-08-31T17:00:01;3.75;;;2.00;;
40198;SDS011;25906;43.536;26.068;2023-08-31T17:02:47;5.30;;;2.10;;
40198;SDS011;25906;43.536;26.068;2023-08-31T17:05:32;4.75;;;1.80;;
40198;SDS011;25906;43.536;26.068;2023-08-31T17:08:18;4.00;;;2.07;;
40198;SDS011;25906;43.536;26.068;2023-08-31T17:11:05;4.10;;;2.15;;
40198;SDS011;25906;43.536;26.068;2023-08-31T17:13:50;5.03;;;1.95;;
40198;SDS011;25906;43.536;26.068;2023-08-31T17:16:36;4.13;;;2.03;;
40198;SDS011;25906;43.536;26.068;2023-08-31T17:19:21;3.47;;;1.75;;
40198;SDS011;25906;43.536;26.068;2023-08-31T17:22:07;5.10;;;1.70;;
40198;SDS011;25906;43.536;26.068;2023-08-31T17:24:53;8.70;;;4.45;;
40198;SDS011;25906;43.536;26.068;2023-08-31T17:27:38;3.50;;;2.00;;
40198;SDS011;25906;43.536;26.068;2023-08-31T17:30:24;2.53;;;1.83;;
40198;SDS011;25906;43.536;26.068;2023-08-31T17:33:10;2.58;;;1.70;;
40198;SDS011;25906;43.536;26.068;2023-08-31T17:38:41;2.13;;;1.25;;
40198;SDS011;25906;43.536;26.068;2023-08-31T17:41:27;3.83;;;1.58;;
40198;SDS011;25906;43.536;26.068;2023-08-31T17:44:12;2.33;;;1.60;;
40198;SDS011;25906;43.536;26.068;2023-08-31T17:49:43;3.47;;;1.67;;
40198;SDS011;25906;43.536;26.068;2023-08-31T17:55:14;3.38;;;1.85;;
40198;SDS011;25906;43.536;26.068;2023-08-31T17:57:59;6.68;;;2.20;;
40198;SDS011;25906;43.536;26.068;2023-08-31T18:00:45;5.20;;;1.80;;
40198;SDS011;25906;43.536;26.068;2023-08-31T18:03:30;5.63;;;2.10;;
40198;SDS011;25906;43.536;26.068;2023-08-31T18:06:16;3.58;;;2.17;;
40198;SDS011;25906;43.536;26.068;2023-08-31T18:09:02;2.17;;;1.70;;
40198;SDS011;25906;43.536;26.068;2023-08-31T18:11:50;4.15;;;2.10;;
40198;SDS011;25906;43.536;26.068;2023-08-31T18:17:21;6.73;;;1.87;;
40198;SDS011;25906;43.536;26.068;2023-08-31T18:20:07;3.40;;;1.90;;
40198;SDS011;25906;43.536;26.068;2023-08-31T18:22:53;4.97;;;2.10;;
40198;SDS011;25906;43.536;26.068;2023-08-31T18:25:39;2.42;;;1.80;;
40198;SDS011;25906;43.536;26.068;2023-08-31T18:28:24;2.90;;;2.10;;
40198;SDS011;25906;43.536;26.068;2023-08-31T18:31:10;6.38;;;2.17;;